Time;durP1;ratioP1;P1;durP2;ratioP2;P2;SDS_P1;SDS_P2;PMS_P1;PMS_P2;Temp;Humidity;BMP_temperature;BMP_pressure;BME280_temperature;BME280_humidity;BME280_pressure;Samples;Min_cycle;Max_cycle;Signal;HPM_P1;HPM_P2
2023/01/31 18:31:02;;;;;;;20.38;3.85;;;;;;;3.78;85.33;101525.97;5124393;27;20390;-96
2023/01/31 18:33:33;;;;;;;25.83;3.80;;;;;;;3.79;83.95;101524.25;5125738;28;20032;-96
2023/01/31 18:36:00;;;;;;;17.65;3.80;;;;;;;3.72;84.90;101531.13;5093719;28;20024;-95
2023/01/31 18:38:27;;;;;;;27.65;3.88;;;;;;;3.65;85.60;101548.22;5099042;28;20028;-96
2023/01/31 18:40:53;;;;;;;20.17;3.20;;;;;;;3.67;84.87;101532.91;5089399;28;20028;-95
2023/01/31 18:43:19;;;;;;;22.63;4.72;;;;;;;3.54;85.84;101544.97;5089482;28;20051;-96
2023/01/31 18:46:04;;;;;;;23.70;3.45;;;;;;;3.73;84.31;101555.81;5108205;28;20024;-96
2023/01/31 18:52:30;;;;;;;17.35;3.47;;;;;;;3.82;83.38;101580.41;5895861;22;20132;-96
2023/01/31 18:54:55;;;;;;;19.88;3.35;;;;;;;3.63;84.77;101556.75;5038009;28;20180;-95
2023/01/31 18:57:24;;;;;;;23.42;4.90;;;;;;;3.74;83.60;101546.44;5030290;28;20052;-95
2023/01/31 18:59:49;;;;;;;21.88;3.92;;;;;;;3.84;83.11;101553.97;5028870;28;20057;-96
2023/01/31 19:02:20;;;;;;;16.45;3.53;;;;;;;4.12;81.19;101548.56;5031252;28;20471;-96
2023/01/31 19:05:09;;;;;;;18.40;3.80;;;;;;;4.16;82.49;101560.41;5031923;28;20042;-96
2023/01/31 19:08:22;;;;;;;25.92;5.20;;;;;;;4.24;78.42;101548.38;4941507;29;20035;-96
2023/01/31 19:10:48;;;;;;;18.67;3.70;;;;;;;4.34;78.05;101554.22;4912326;29;20122;-96
2023/01/31 19:13:43;;;;;;;25.55;4.85;;;;;;;4.46;78.04;101548.94;5015256;28;20069;-96
2023/01/31 19:16:22;;;;;;;21.30;4.13;;;;;;;4.64;77.27;101563.16;5030277;28;20051;-95
2023/01/31 19:18:49;;;;;;;26.25;5.57;;;;;;;4.50;76.72;101539.50;5028675;28;20033;-94
2023/01/31 19:21:17;;;;;;;27.50;4.68;;;;;;;4.96;75.97;101558.41;5027496;28;20029;-96
2023/01/31 19:23:43;;;;;;;21.75;3.88;;;;;;;4.53;77.67;101533.50;5027051;28;20096;-94
2023/01/31 19:26:13;;;;;;;26.42;7.65;;;;;;;4.33;78.26;101526.13;5026938;28;20108;-96
2023/01/31 19:28:39;;;;;;;20.60;3.50;;;;;;;4.31;79.76;101543.19;5026476;28;20026;-94
2023/01/31 19:31:07;;;;;;;21.98;3.85;;;;;;;4.07;82.71;101556.28;5016386;28;20044;-92
2023/01/31 19:33:35;;;;;;;19.98;4.57;;;;;;;3.91;82.95;101546.25;5013107;28;20026;-94
2023/01/31 19:36:16;;;;;;;19.45;4.32;;;;;;;3.99;84.56;101539.34;5009369;28;20049;-92
2023/01/31 19:38:42;;;;;;;28.45;5.68;;;;;;;3.82;86.61;101527.59;5011673;28;20037;-93
2023/01/31 19:41:19;;;;;;;21.50;4.07;;;;;;;3.93;85.75;101544.53;5014683;28;20026;-93
2023/01/31 19:43:50;;;;;;;19.77;4.20;;;;;;;3.98;86.39;101541.03;5013673;28;20041;-94
2023/01/31 19:46:17;;;;;;;23.20;4.72;;;;;;;3.97;86.82;101531.69;5012486;28;20038;-93
2023/01/31 19:48:42;;;;;;;27.08;4.20;;;;;;;3.94;88.08;101536.84;4999116;28;20023;-93
2023/01/31 19:51:11;;;;;;;28.77;4.75;;;;;;;3.93;90.46;101547.94;5013234;28;20494;-93
2023/01/31 19:53:37;;;;;;;26.77;5.55;;;;;;;4.42;88.65;101566.88;5009718;28;20034;-93
2023/01/31 19:56:03;;;;;;;29.58;5.68;;;;;;;4.34;89.08;101561.00;5013265;28;20026;-93
2023/01/31 19:58:31;;;;;;;28.65;6.57;;;;;;;4.49;89.54;101542.94;5012266;28;20033;-92
2023/01/31 20:01:01;;;;;;;30.85;6.93;;;;;;;4.70;91.90;101563.03;5018969;28;20081;-93
2023/01/31 20:03:27;;;;;;;32.83;4.63;;;;;;;4.75;93.34;101551.91;5016818;28;20018;-92
2023/01/31 20:05:53;;;;;;;29.15;5.88;;;;;;;4.83;94.35;101555.19;5013649;28;20092;-93
2023/01/31 20:08:19;;;;;;;23.63;6.20;;;;;;;4.85;94.58;101566.25;5013914;28;20026;-93
2023/01/31 20:10:45;;;;;;;38.95;6.10;;;;;;;5.03;94.48;101550.59;5013664;28;20030;-93
2023/01/31 20:13:10;;;;;;;35.80;8.10;;;;;;;5.13;94.97;101564.94;5013569;28;20014;-93
2023/01/31 20:15:36;;;;;;;30.67;7.53;;;;;;;5.29;94.29;101567.22;5009257;28;20489;-94
2023/01/31 20:18:01;;;;;;;33.13;6.20;;;;;;;5.22;93.68;101550.28;5013588;28;20061;-93
2023/01/31 20:20:27;;;;;;;33.13;5.90;;;;;;;5.23;92.72;101557.94;5016504;28;20091;-94
2023/01/31 20:22:53;;;;;;;39.65;6.35;;;;;;;5.06;93.54;101537.75;5012194;28;20025;-94
2023/01/31 20:25:18;;;;;;;34.83;7.00;;;;;;;5.13;93.47;101551.31;5012665;28;20030;-94
2023/01/31 20:27:44;;;;;;;41.60;6.35;;;;;;;4.84;94.66;101549.22;5010206;28;20049;-94
2023/01/31 20:30:10;;;;;;;39.78;8.95;;;;;;;4.76;95.90;101534.00;5003781;28;20029;-94
2023/01/31 20:32:36;;;;;;;39.67;8.07;;;;;;;4.56;96.29;101507.88;5011227;28;20018;-93
2023/01/31 20:35:02;;;;;;;26.70;5.43;;;;;;;4.53;96.08;101524.09;5012991;28;20535;-93
2023/01/31 20:37:28;;;;;;;46.10;9.43;;;;;;;4.39;98.39;101536.25;5015765;28;20030;-94
2023/01/31 20:39:54;;;;;;;42.10;8.65;;;;;;;4.54;97.39;101536.03;5012489;28;20034;-94
2023/01/31 20:42:20;;;;;;;31.58;7.55;;;;;;;4.53;98.01;101552.22;5000362;28;20172;-94
2023/01/31 20:44:45;;;;;;;38.85;8.20;;;;;;;4.50;96.91;101534.38;5012894;28;20125;-93
2023/01/31 20:47:11;;;;;;;30.20;5.05;;;;;;;4.63;95.36;101541.03;5012023;28;20044;-94
2023/01/31 20:49:37;;;;;;;42.28;8.10;;;;;;;4.68;95.63;101557.13;5012597;28;20022;-94
2023/01/31 20:52:02;;;;;;;41.03;10.13;;;;;;;4.42;95.58;101546.44;5012237;28;20037;-94
2023/01/31 20:54:29;;;;;;;26.65;7.25;;;;;;;4.39;96.96;101546.47;5013913;28;20044;-94
2023/01/31 20:56:58;;;;;;;46.45;7.90;;;;;;;4.34;96.39;101561.00;5011448;28;20030;-94
2023/01/31 20:59:24;;;;;;;28.85;4.90;;;;;;;4.19;97.75;101556.97;5012440;28;20072;-94
2023/01/31 21:01:50;;;;;;;25.92;4.88;;;;;;;4.02;98.05;101536.72;5012825;28;20123;-94
2023/01/31 21:04:16;;;;;;;22.92;4.38;;;;;;;4.01;98.32;101558.03;5012713;28;20029;-94
2023/01/31 21:06:42;;;;;;;27.38;4.35;;;;;;;3.89;98.88;101543.72;5012431;28;20034;-94
2023/01/31 21:09:07;;;;;;;24.17;5.28;;;;;;;3.65;100.00;101542.28;5012187;28;20018;-94
2023/01/31 21:11:33;;;;;;;28.77;5.18;;;;;;;3.71;100.00;101543.94;5012706;28;20647;-94
2023/01/31 21:13:59;;;;;;;33.60;5.28;;;;;;;3.71;99.40;101524.34;5013107;28;20061;-94
2023/01/31 21:16:24;;;;;;;29.60;4.85;;;;;;;3.72;98.66;101533.69;5015335;28;20030;-94
2023/01/31 21:18:50;;;;;;;27.30;4.72;;;;;;;3.73;98.97;101549.84;5012196;28;20481;-94
2023/01/31 21:21:22;;;;;;;27.23;4.13;;;;;;;4.07;95.37;101557.94;5012147;28;20129;-94
2023/01/31 21:23:50;;;;;;;18.45;3.70;;;;;;;3.73;96.74;101545.59;5009959;28;20076;-93
2023/01/31 21:26:17;;;;;;;28.85;4.78;;;;;;;3.75;98.04;101558.34;5011694;28;20076;-94
2023/01/31 21:28:42;;;;;;;28.80;4.43;;;;;;;3.86;95.90;101556.53;5012020;28;20022;-94
2023/01/31 21:31:15;;;;;;;29.10;4.78;;;;;;;4.06;94.21;101536.69;5011630;28;20029;-93
2023/01/31 21:33:51;;;;;;;30.75;3.95;;;;;;;4.16;92.39;101550.19;5011803;28;20026;-94
2023/01/31 21:36:24;;;;;;;19.92;3.53;;;;;;;4.11;92.75;101536.63;4997267;28;20030;-93
2023/01/31 21:38:51;;;;;;;30.27;3.90;;;;;;;4.12;91.18;101527.25;5012168;28;20034;-93
2023/01/31 21:44:02;;;;;;;31.50;5.40;;;;;;;4.44;90.32;101526.81;5012910;28;20061;-94
2023/01/31 21:46:28;;;;;;;15.77;4.63;;;;;;;4.50;89.05;101514.78;5010582;28;20029;-94
2023/01/31 21:48:54;;;;;;;26.77;4.20;;;;;;;4.59;88.95;101518.06;5011765;28;20033;-94
2023/01/31 21:51:23;;;;;;;20.25;5.05;;;;;;;4.50;89.26;101516.50;4991809;28;20698;-92
2023/01/31 21:53:50;;;;;;;29.45;4.95;;;;;;;4.72;90.23;101538.28;4972350;28;20035;-93
2023/01/31 21:56:22;;;;;;;25.25;3.75;;;;;;;4.72;90.03;101545.13;4983523;28;20413;-93
2023/01/31 21:58:47;;;;;;;37.25;4.22;;;;;;;4.58;91.54;101542.78;4990761;28;20087;-93
2023/01/31 22:01:22;;;;;;;26.75;3.78;;;;;;;4.55;93.46;101545.38;4987081;28;20027;-94
2023/01/31 22:03:50;;;;;;;28.05;6.13;;;;;;;4.55;93.53;101542.00;4971206;28;20033;-93
2023/01/31 22:06:18;;;;;;;30.98;5.68;;;;;;;4.67;93.05;101570.78;4976848;28;20052;-93
2023/01/31 22:08:48;;;;;;;31.73;4.22;;;;;;;4.38;95.89;101560.13;4971375;28;20038;-93
2023/01/31 22:11:14;;;;;;;32.55;4.20;;;;;;;4.27;98.12;101558.56;4972656;28;20034;-92
2023/01/31 22:13:44;;;;;;;31.45;4.70;;;;;;;4.36;98.31;101582.28;4970945;28;20061;-93
2023/01/31 22:16:11;;;;;;;36.50;3.78;;;;;;;4.20;100.00;101564.63;4971191;28;20070;-92
2023/01/31 22:18:38;;;;;;;39.92;4.70;;;;;;;4.33;100.00;101564.44;4972281;28;20023;-91
2023/01/31 22:21:27;;;;;;;29.58;4.85;;;;;;;4.28;100.00;101570.47;4973641;28;20027;-92
2023/01/31 22:23:55;;;;;;;31.20;5.38;;;;;;;4.18;100.00;101560.38;4973040;28;20035;-93
2023/01/31 22:26:23;;;;;;;37.17;4.63;;;;;;;4.10;100.00;101578.38;4971369;28;20109;-93
2023/01/31 22:28:50;;;;;;;35.60;5.57;;;;;;;3.85;100.00;101555.69;4972221;28;20045;-93
2023/01/31 22:31:16;;;;;;;37.85;6.00;;;;;;;3.99;100.00;101557.22;4971674;28;20035;-93
2023/01/31 22:33:42;;;;;;;35.28;4.88;;;;;;;4.06;100.00;101549.44;4970988;28;20023;-92
2023/01/31 22:36:10;;;;;;;37.35;6.38;;;;;;;3.98;100.00;101555.53;4972173;28;20033;-93
2023/01/31 22:38:36;;;;;;;22.02;3.90;;;;;;;3.87;100.00;101553.09;4973308;28;20023;-93
2023/01/31 22:41:05;;;;;;;30.58;4.70;;;;;;;3.93;100.00;101553.03;4973289;28;20052;-93
2023/01/31 22:43:34;;;;;;;27.85;5.60;;;;;;;4.04;100.00;101550.34;4971894;28;20493;-93
2023/01/31 22:46:00;;;;;;;31.20;4.45;;;;;;;4.00;100.00;101541.00;4972201;28;20027;-93
2023/01/31 22:48:26;;;;;;;31.42;4.72;;;;;;;4.05;100.00;101567.38;4971560;28;20026;-93
2023/01/31 22:50:55;;;;;;;36.75;4.82;;;;;;;3.86;100.00;101547.16;4971917;28;20485;-93
2023/01/31 22:53:21;;;;;;;32.47;4.13;;;;;;;4.08;100.00;101564.78;4972074;28;20055;-93
2023/01/31 22:55:47;;;;;;;26.15;4.57;;;;;;;4.00;100.00;101564.00;4972106;28;20027;-93
2023/01/31 22:58:14;;;;;;;37.83;5.00;;;;;;;4.13;100.00;101568.09;4971417;28;20034;-93
2023/01/31 23:00:39;;;;;;;32.08;5.10;;;;;;;4.22;100.00;101552.66;4971961;28;20024;-92
2023/01/31 23:03:05;;;;;;;27.83;5.40;;;;;;;4.06;100.00;101551.16;4971983;28;20027;-92
2023/01/31 23:05:30;;;;;;;28.60;4.43;;;;;;;3.99;100.00;101552.94;4972674;28;20504;-92
2023/01/31 23:07:57;;;;;;;29.98;5.18;;;;;;;4.17;100.00;101559.56;4975676;28;20027;-92
2023/01/31 23:10:24;;;;;;;32.22;6.32;;;;;;;3.81;100.00;101538.69;4975889;28;20503;-93
2023/01/31 23:12:51;;;;;;;33.30;4.57;;;;;;;3.81;100.00;101563.41;4974888;28;20039;-93
2023/01/31 23:15:17;;;;;;;33.78;4.93;;;;;;;3.80;100.00;101557.44;4975186;28;20477;-93
2023/01/31 23:17:44;;;;;;;38.33;5.63;;;;;;;3.92;100.00;101571.75;4975319;28;20027;-92
2023/01/31 23:20:18;;;;;;;32.85;4.32;;;;;;;3.93;100.00;101552.19;4975153;28;20398;-93
2023/01/31 23:22:44;;;;;;;34.15;4.90;;;;;;;4.03;100.00;101564.00;4974465;28;20033;-93
2023/01/31 23:25:11;;;;;;;30.80;5.07;;;;;;;3.95;100.00;101545.34;4975212;28;20023;-93
2023/01/31 23:27:37;;;;;;;35.70;4.95;;;;;;;3.92;100.00;101565.81;4975236;28;20058;-92
2023/01/31 23:30:05;;;;;;;35.88;5.60;;;;;;;3.74;100.00;101569.44;4975924;28;20069;-92
2023/01/31 23:32:31;;;;;;;28.67;4.30;;;;;;;3.76;100.00;101585.59;4974846;28;20445;-92
2023/01/31 23:34:56;;;;;;;25.60;4.20;;;;;;;3.69;100.00;101572.03;4974886;28;20027;-92
2023/01/31 23:37:22;;;;;;;25.15;4.80;;;;;;;4.08;100.00;101590.31;4975162;28;20023;-92
2023/01/31 23:39:48;;;;;;;24.38;4.28;;;;;;;4.09;100.00;101584.34;4975024;28;20026;-92
2023/01/31 23:42:14;;;;;;;23.02;4.65;;;;;;;3.98;100.00;101581.06;4974796;28;20577;-94
2023/01/31 23:44:40;;;;;;;33.40;4.45;;;;;;;4.08;100.00;101592.88;4974860;28;20097;-94
2023/01/31 23:47:05;;;;;;;23.13;4.10;;;;;;;3.91;100.00;101574.34;4974078;28;20497;-94
2023/01/31 23:49:31;;;;;;;21.50;3.75;;;;;;;3.93;100.00;101562.41;4974624;28;20059;-93
2023/01/31 23:51:57;;;;;;;34.58;4.47;;;;;;;3.81;100.00;101559.13;4974576;28;20038;-93
2023/01/31 23:54:22;;;;;;;29.77;4.20;;;;;;;3.79;100.00;101576.16;4974855;28;20030;-93
2023/01/31 23:56:48;;;;;;;28.90;4.68;;;;;;;3.69;100.00;101559.25;4974734;28;20046;-94
2023/01/31 23:59:14;;;;;;;33.83;4.32;;;;;;;3.55;100.00;101561.13;4974460;28;20497;-94
